Portada
METAR-TAF:

METAR-TAF

Aeroports :

Gerbangkertosusila, Indonèsia

latitud: 07-22-47S, longitud: 112-47-13E, altitud: 3 m

Observació

L'informe es va fer fa 12 hores i 16 minuts, a les 00:00 UTC
Vent 6 kt del Sud/Sud-Oest
Temperatura 25°C
Humitat 79%
Pressió 1014 hPa
Visibilitat: 5000 m
Escasses núvols a una alçada de 2000 ft
calitja

METAR: WARR 180000Z 20006KT 5000 HZ FEW020 25/21 Q1014 NOSIG

Hora: 19:16 (12:16 UTC)

Pronòstic

L'informe es va fer fa 1 hora i 16 minuts, a les 11:00 UTC
Pronòstic vàlid del 18 a les 12 UTC al 19 a les 12 UTC
Vent 12 kt del Est/Sud-Est
Visibilitat: 8000 m
Escasses núvols a una alçada de 2000 ft
Evolucionant progressivament
l' 18 a les 16 UTC al 18 a les 18 UTC
Vent 5 kt del Oest/Sud-Oest
Visibilitat: 4000 m
calitja
Evolucionant progressivament
l' 19 a les 00 UTC al 19 a les 02 UTC
Vent 12 kt del Est
Visibilitat 10 km o més

TAF: WARR 181100Z 1812/1912 11012KT 8000 FEW020 BECMG 1816/1818 24005KT 4000 HZ BECMG 1900/1902 10012KT 9999 NSW

Observacions i pronòstics meteorològics de més de 4000 aeroports (METAR i TAF).

Les estacions disponibles són els punts grocs i vermells al mapa.

Posi el ratolí al punt desitjat per veure el nom de l'estació.

Feu clic per veure les observacions i els pronòstics meteorològics.

Per canviar el mapa: feu clic els botons verds amb una creu de color negre per apropar; al botó verd amb un guió per allunyar la imatge; o en les fletxes verdes per a mapes adjacents.


METAR-TAF: